sensor_id;sensor_type;location;lat;lon;timestamp;temperature;humidity
35305;DHT22;26433;48.034;-1.764;2023-02-12T06:01:12;3.40;74.70
35305;DHT22;26433;48.034;-1.764;2023-02-12T06:06:16;3.50;74.90
35305;DHT22;26433;48.034;-1.764;2023-02-12T06:11:19;3.40;74.70
35305;DHT22;26433;48.034;-1.764;2023-02-12T06:16:26;3.40;74.90
35305;DHT22;26433;48.034;-1.764;2023-02-12T06:21:31;3.40;74.60
35305;DHT22;26433;48.034;-1.764;2023-02-12T06:26:35;3.20;74.40
35305;DHT22;26433;48.034;-1.764;2023-02-12T06:31:40;3.10;75.50
35305;DHT22;26433;48.034;-1.764;2023-02-12T06:36:45;3.00;75.70
35305;DHT22;26433;48.034;-1.764;2023-02-12T06:41:49;3.00;75.80
35305;DHT22;26433;48.034;-1.764;2023-02-12T06:46:54;3.10;75.50
35305;DHT22;26433;48.034;-1.764;2023-02-12T06:52:00;3.10;75.40
35305;DHT22;26433;48.034;-1.764;2023-02-12T06:57:04;3.10;75.30
35305;DHT22;26433;48.034;-1.764;2023-02-12T07:02:10;3.20;75.10
35305;DHT22;26433;48.034;-1.764;2023-02-12T07:07:14;3.20;75.00
35305;DHT22;26433;48.034;-1.764;2023-02-12T07:12:17;3.20;75.10
35305;DHT22;26433;48.034;-1.764;2023-02-12T07:17:22;3.20;75.20
35305;DHT22;26433;48.034;-1.764;2023-02-12T07:22:26;3.10;75.30
35305;DHT22;26433;48.034;-1.764;2023-02-12T07:27:30;3.10;75.50
35305;DHT22;26433;48.034;-1.764;2023-02-12T07:32:35;3.20;75.50
35305;DHT22;26433;48.034;-1.764;2023-02-12T07:37:38;3.20;75.50
35305;DHT22;26433;48.034;-1.764;2023-02-12T07:42:42;3.20;75.30
35305;DHT22;26433;48.034;-1.764;2023-02-12T07:47:47;3.30;75.30
35305;DHT22;26433;48.034;-1.764;2023-02-12T07:52:51;3.30;75.30
35305;DHT22;26433;48.034;-1.764;2023-02-12T07:57:54;3.30;75.10
35305;DHT22;26433;48.034;-1.764;2023-02-12T08:03:00;3.30;75.30
35305;DHT22;26433;48.034;-1.764;2023-02-12T08:08:03;3.40;75.30
35305;DHT22;26433;48.034;-1.764;2023-02-12T08:13:07;3.40;75.10
35305;DHT22;26433;48.034;-1.764;2023-02-12T08:18:12;3.50;75.30
35305;DHT22;26433;48.034;-1.764;2023-02-12T08:23:15;3.50;75.20
35305;DHT22;26433;48.034;-1.764;2023-02-12T08:28:19;3.70;74.90
35305;DHT22;26433;48.034;-1.764;2023-02-12T08:33:25;3.90;74.60
35305;DHT22;26433;48.034;-1.764;2023-02-12T08:38:30;4.00;74.60
35305;DHT22;26433;48.034;-1.764;2023-02-12T08:43:35;4.10;74.40
35305;DHT22;26433;48.034;-1.764;2023-02-12T08:48:40;4.20;74.60
35305;DHT22;26433;48.034;-1.764;2023-02-12T08:53:45;4.30;75.40
35305;DHT22;26433;48.034;-1.764;2023-02-12T08:58:50;4.60;75.10
35305;DHT22;26433;48.034;-1.764;2023-02-12T09:03:55;5.00;75.00
35305;DHT22;26433;48.034;-1.764;2023-02-12T09:08:58;5.40;74.50
35305;DHT22;26433;48.034;-1.764;2023-02-12T09:14:04;5.70;74.10
35305;DHT22;26433;48.034;-1.764;2023-02-12T09:19:11;6.20;73.50
35305;DHT22;26433;48.034;-1.764;2023-02-12T09:29:19;6.40;73.60
35305;DHT22;26433;48.034;-1.764;2023-02-12T09:34:24;6.60;74.30
35305;DHT22;26433;48.034;-1.764;2023-02-12T09:39:27;6.70;74.40
35305;DHT22;26433;48.034;-1.764;2023-02-12T09:44:38;6.90;74.80
35305;DHT22;26433;48.034;-1.764;2023-02-12T09:50:28;7.00;75.10
35305;DHT22;26433;48.034;-1.764;2023-02-12T09:55:34;7.10;75.30
35305;DHT22;26433;48.034;-1.764;2023-02-12T10:00:38;7.30;75.30
35305;DHT22;26433;48.034;-1.764;2023-02-12T10:05:48;7.40;75.60
35305;DHT22;26433;48.034;-1.764;2023-02-12T10:10:57;7.50;76.00
35305;DHT22;26433;48.034;-1.764;2023-02-12T10:16:11;7.60;75.90
35305;DHT22;26433;48.034;-1.764;2023-02-12T10:21:30;7.70;76.40
35305;DHT22;26433;48.034;-1.764;2023-02-12T10:26:39;7.70;76.90
35305;DHT22;26433;48.034;-1.764;2023-02-12T10:31:46;8.00;76.20
35305;DHT22;26433;48.034;-1.764;2023-02-12T10:36:57;8.20;76.10
35305;DHT22;26433;48.034;-1.764;2023-02-12T10:42:10;8.20;76.60
35305;DHT22;26433;48.034;-1.764;2023-02-12T10:47:18;8.40;76.50
35305;DHT22;26433;48.034;-1.764;2023-02-12T10:52:33;8.40;77.20
35305;DHT22;26433;48.034;-1.764;2023-02-12T10:57:38;9.20;75.80
35305;DHT22;26433;48.034;-1.764;2023-02-12T11:02:59;10.00;88.50
35305;DHT22;26433;48.034;-1.764;2023-02-12T11:08:05;9.70;74.40
35305;DHT22;26433;48.034;-1.764;2023-02-12T11:13:21;10.50;73.60
35305;DHT22;26433;48.034;-1.764;2023-02-12T11:18:28;11.30;71.50
35305;DHT22;26433;48.034;-1.764;2023-02-12T11:23:37;11.70;70.10
35305;DHT22;26433;48.034;-1.764;2023-02-12T11:28:52;11.90;69.80
35305;DHT22;26433;48.034;-1.764;2023-02-12T11:34:09;12.00;70.60
35305;DHT22;26433;48.034;-1.764;2023-02-12T11:39:20;12.20;69.80
35305;DHT22;26433;48.034;-1.764;2023-02-12T11:44:28;12.20;69.80
35305;DHT22;26433;48.034;-1.764;2023-02-12T11:49:36;12.10;70.20
35305;DHT22;26433;48.034;-1.764;2023-02-12T11:54:45;12.30;71.30
35305;DHT22;26433;48.034;-1.764;2023-02-12T11:59:50;12.80;70.40
35305;DHT22;26433;48.034;-1.764;2023-02-12T12:04:54;12.80;71.10
35305;DHT22;26433;48.034;-1.764;2023-02-12T12:10:04;14.70;65.50
35305;DHT22;26433;48.034;-1.764;2023-02-12T12:15:16;14.90;64.90
35305;DHT22;26433;48.034;-1.764;2023-02-12T12:20:39;14.80;65.50
35305;DHT22;26433;48.034;-1.764;2023-02-12T12:25:47;15.30;64.60
35305;DHT22;26433;48.034;-1.764;2023-02-12T12:31:07;15.50;64.00
35305;DHT22;26433;48.034;-1.764;2023-02-12T12:42:21;16.00;63.20
35305;DHT22;26433;48.034;-1.764;2023-02-12T12:47:33;16.70;62.50
35305;DHT22;26433;48.034;-1.764;2023-02-12T12:52:58;16.70;63.00
35305;DHT22;26433;48.034;-1.764;2023-02-12T12:58:07;17.20;61.60
35305;DHT22;26433;48.034;-1.764;2023-02-12T13:09:10;18.10;59.10
35305;DHT22;26433;48.034;-1.764;2023-02-12T13:14:30;18.20;59.30
35305;DHT22;26433;48.034;-1.764;2023-02-12T13:19:44;18.20;59.60
35305;DHT22;26433;48.034;-1.764;2023-02-12T13:24:54;18.30;58.30
35305;DHT22;26433;48.034;-1.764;2023-02-12T13:30:05;18.50;57.70
35305;DHT22;26433;48.034;-1.764;2023-02-12T13:35:15;18.30;57.70
35305;DHT22;26433;48.034;-1.764;2023-02-12T13:40:22;18.30;57.80
35305;DHT22;26433;48.034;-1.764;2023-02-12T13:45:37;18.50;57.20
35305;DHT22;26433;48.034;-1.764;2023-02-12T13:50:47;18.80;56.90
35305;DHT22;26433;48.034;-1.764;2023-02-12T13:56:05;18.80;57.30
35305;DHT22;26433;48.034;-1.764;2023-02-12T14:01:12;19.10;55.90
35305;DHT22;26433;48.034;-1.764;2023-02-12T14:06:18;19.30;55.30
35305;DHT22;26433;48.034;-1.764;2023-02-12T14:11:24;19.20;55.00
35305;DHT22;26433;48.034;-1.764;2023-02-12T14:16:38;18.90;55.20
35305;DHT22;26433;48.034;-1.764;2023-02-12T14:31:52;18.70;55.10
35305;DHT22;26433;48.034;-1.764;2023-02-12T14:37:11;18.50;54.90
35305;DHT22;26433;48.034;-1.764;2023-02-12T14:42:57;18.80;74.10
35305;DHT22;26433;48.034;-1.764;2023-02-12T14:48:03;18.50;54.80
35305;DHT22;26433;48.034;-1.764;2023-02-12T14:53:21;18.40;54.60
35305;DHT22;26433;48.034;-1.764;2023-02-12T15:03:40;18.20;54.80
35305;DHT22;26433;48.034;-1.764;2023-02-12T15:08:50;18.10;55.00
35305;DHT22;26433;48.034;-1.764;2023-02-12T15:13:58;17.90;54.70
35305;DHT22;26433;48.034;-1.764;2023-02-12T15:19:17;17.60;54.90
35305;DHT22;26433;48.034;-1.764;2023-02-12T15:24:24;17.20;55.20
35305;DHT22;26433;48.034;-1.764;2023-02-12T15:29:32;16.70;55.80
35305;DHT22;26433;48.034;-1.764;2023-02-12T15:34:40;16.30;56.30
35305;DHT22;26433;48.034;-1.764;2023-02-12T15:55:04;15.60;59.00
35305;DHT22;26433;48.034;-1.764;2023-02-12T16:00:19;15.30;60.70
35305;DHT22;26433;48.034;-1.764;2023-02-12T16:15:34;14.40;76.30
35305;DHT22;26433;48.034;-1.764;2023-02-12T16:20:42;14.00;59.20
35305;DHT22;26433;48.034;-1.764;2023-02-12T17:17:08;11.90;82.90
35305;DHT22;26433;48.034;-1.764;2023-02-12T19:24:14;8.30;78.20
35305;DHT22;26433;48.034;-1.764;2023-02-12T20:40:26;6.60;68.70
35305;DHT22;26433;48.034;-1.764;2023-02-12T20:45:30;6.60;90.70
35305;DHT22;26433;48.034;-1.764;2023-02-12T20:50:33;6.50;87.10
35305;DHT22;26433;48.034;-1.764;2023-02-12T20:55:38;6.50;69.00
35305;DHT22;26433;48.034;-1.764;2023-02-12T21:10:58;6.30;69.10
35305;DHT22;26433;48.034;-1.764;2023-02-12T21:16:07;6.20;69.40
35305;DHT22;26433;48.034;-1.764;2023-02-12T21:21:13;6.10;69.40
35305;DHT22;26433;48.034;-1.764;2023-02-12T21:26:20;6.20;69.30
35305;DHT22;26433;48.034;-1.764;2023-02-12T21:31:25;6.10;69.30
35305;DHT22;26433;48.034;-1.764;2023-02-12T21:36:32;6.30;90.60
35305;DHT22;26433;48.034;-1.764;2023-02-12T21:41:38;5.90;69.60
35305;DHT22;26433;48.034;-1.764;2023-02-12T21:46:43;5.90;69.70
35305;DHT22;26433;48.034;-1.764;2023-02-12T22:12:07;5.60;70.10
35305;DHT22;26433;48.034;-1.764;2023-02-12T22:17:11;5.60;70.70
35305;DHT22;26433;48.034;-1.764;2023-02-12T22:22:14;5.50;70.80
35305;DHT22;26433;48.034;-1.764;2023-02-12T22:27:19;5.50;71.00
35305;DHT22;26433;48.034;-1.764;2023-02-12T22:32:23;5.50;70.90
35305;DHT22;26433;48.034;-1.764;2023-02-12T22:37:27;5.50;71.10
35305;DHT22;26433;48.034;-1.764;2023-02-12T22:42:32;5.50;71.00
35305;DHT22;26433;48.034;-1.764;2023-02-12T22:47:36;5.30;70.40
35305;DHT22;26433;48.034;-1.764;2023-02-12T22:52:40;4.90;71.50
35305;DHT22;26433;48.034;-1.764;2023-02-12T22:57:45;4.90;72.30
35305;DHT22;26433;48.034;-1.764;2023-02-12T23:02:48;4.90;72.10
35305;DHT22;26433;48.034;-1.764;2023-02-12T23:07:52;4.90;71.70
35305;DHT22;26433;48.034;-1.764;2023-02-12T23:12:57;4.70;72.10
35305;DHT22;26433;48.034;-1.764;2023-02-12T23:18:01;4.80;72.30
35305;DHT22;26433;48.034;-1.764;2023-02-12T23:23:05;4.80;71.90
35305;DHT22;26433;48.034;-1.764;2023-02-12T23:28:10;4.90;71.80
